Time;durP1;ratioP1;P1;durP2;ratioP2;P2;SDS_P1;SDS_P2;PMS_P1;PMS_P2;Temp;Humidity;BMP_temperature;BMP_pressure;BME280_temperature;BME280_humidity;BME280_pressure;Samples;Min_cycle;Max_cycle;Signal;HPM_P1;HPM_P2
2021/05/20 00:00:45;;;;;;;1.80;0.80;;;11.70;66.90;;;;;;4945497;29;20036;-63
2021/05/20 00:03:11;;;;;;;1.42;0.80;;;11.80;66.90;;;;;;4944895;29;20075;-63
2021/05/20 00:05:36;;;;;;;1.65;0.90;;;11.80;66.60;;;;;;4946607;29;20066;-63
2021/05/20 00:08:02;;;;;;;1.83;1.20;;;11.70;66.50;;;;;;4945074;29;20028;-63
2021/05/20 00:10:28;;;;;;;2.30;0.90;;;11.70;66.50;;;;;;4945233;29;20143;-63
2021/05/20 00:12:53;;;;;;;1.67;0.90;;;11.70;66.60;;;;;;4944971;29;20042;-63
2021/05/20 00:15:19;;;;;;;2.85;0.90;;;11.70;66.40;;;;;;4944938;29;20248;-63
2021/05/20 00:17:44;;;;;;;1.55;0.90;;;11.70;66.60;;;;;;4946528;29;20432;-63
2021/05/20 00:20:10;;;;;;;3.47;0.90;;;11.70;66.60;;;;;;4944865;29;20342;-63
2021/05/20 00:22:36;;;;;;;1.85;0.77;;;11.70;66.50;;;;;;4944899;29;20036;-63
2021/05/20 00:25:01;;;;;;;1.75;0.93;;;11.70;66.30;;;;;;4944832;29;20275;-63
2021/05/20 00:27:27;;;;;;;2.00;0.98;;;11.70;66.60;;;;;;4945325;29;20240;-63
2021/05/20 00:29:54;;;;;;;6.00;1.00;;;11.60;66.20;;;;;;4930266;29;20058;-63
2021/05/20 00:32:20;;;;;;;3.58;1.08;;;11.60;66.70;;;;;;4945322;29;20043;-62
2021/05/20 00:34:45;;;;;;;1.50;0.70;;;11.70;66.70;;;;;;4944828;29;20046;-63
2021/05/20 00:37:11;;;;;;;3.45;0.80;;;11.60;66.70;;;;;;4944956;29;20200;-63
2021/05/20 00:39:36;;;;;;;1.70;0.90;;;11.60;66.60;;;;;;4944719;29;20234;-64
2021/05/20 00:42:08;;;;;;;4.05;1.05;;;11.60;66.80;;;;;;4946617;29;20090;-63
2021/05/20 00:44:49;;;;;;;1.65;0.93;;;11.70;66.80;;;;;;4945270;29;20059;-63
2021/05/20 00:47:18;;;;;;;3.77;1.00;;;11.60;66.90;;;;;;4945168;29;20051;-63
2021/05/20 00:49:43;;;;;;;1.88;0.80;;;11.70;66.90;;;;;;4944778;29;20043;-63
2021/05/20 00:52:09;;;;;;;1.52;0.85;;;11.50;67.10;;;;;;4944988;29;20032;-63
2021/05/20 00:54:34;;;;;;;2.05;0.95;;;11.60;67.00;;;;;;4944620;29;20082;-63
2021/05/20 00:57:00;;;;;;;2.13;1.00;;;11.60;67.20;;;;;;4946175;29;20279;-63
2021/05/20 00:59:25;;;;;;;3.42;1.02;;;11.70;67.10;;;;;;4928235;29;20070;-64
2021/05/20 01:01:51;;;;;;;1.63;0.90;;;11.60;66.90;;;;;;4945008;29;20046;-64
2021/05/20 01:04:16;;;;;;;2.40;0.90;;;11.60;67.20;;;;;;4927739;29;20051;-64
2021/05/20 01:06:42;;;;;;;2.00;0.90;;;11.60;67.40;;;;;;4944735;29;20091;-63
2021/05/20 01:09:07;;;;;;;2.22;0.90;;;11.60;67.40;;;;;;4949707;29;20231;-64
2021/05/20 01:11:34;;;;;;;2.72;1.00;;;11.60;67.30;;;;;;4948072;29;20090;-63
2021/05/20 01:13:59;;;;;;;1.42;1.00;;;11.60;67.30;;;;;;4931260;29;20043;-63
2021/05/20 01:16:25;;;;;;;1.63;1.00;;;11.60;67.50;;;;;;4948061;29;20084;-63
2021/05/20 01:18:50;;;;;;;2.08;1.10;;;11.60;67.80;;;;;;4947977;29;20392;-63
2021/05/20 01:21:16;;;;;;;1.88;1.00;;;11.70;67.70;;;;;;4947864;29;20030;-63
2021/05/20 01:23:41;;;;;;;1.60;0.90;;;11.70;67.70;;;;;;4949736;29;20082;-63
2021/05/20 01:26:07;;;;;;;1.35;0.80;;;11.70;67.70;;;;;;4947801;29;20339;-63
2021/05/20 01:28:34;;;;;;;0.98;0.85;;;11.70;67.80;;;;;;4947757;29;20043;-63
2021/05/20 01:31:00;;;;;;;2.83;1.00;;;11.70;67.90;;;;;;4947731;29;20103;-63
2021/05/20 01:33:26;;;;;;;2.88;0.93;;;11.80;67.90;;;;;;4947638;29;20075;-63
2021/05/20 01:35:51;;;;;;;1.08;0.77;;;11.80;67.80;;;;;;4949534;29;20315;-63
2021/05/20 01:41:00;;;;;;;3.58;1.10;;;11.80;67.70;;;;;;4947572;29;20043;-64
2021/05/20 01:43:29;;;;;;;1.35;0.80;;;11.80;67.90;;;;;;4948135;29;20047;-64
2021/05/20 01:45:59;;;;;;;2.22;0.82;;;11.80;68.00;;;;;;4947653;29;20036;-62
2021/05/20 01:48:25;;;;;;;1.67;0.98;;;11.80;68.10;;;;;;4947946;29;20035;-63
2021/05/20 01:50:51;;;;;;;3.40;1.00;;;11.80;68.20;;;;;;4932607;29;20058;-63
2021/05/20 01:53:16;;;;;;;8.02;1.13;;;11.80;68.20;;;;;;4947777;29;20103;-63
2021/05/20 01:55:42;;;;;;;2.08;0.80;;;11.80;68.40;;;;;;4947212;29;20055;-63
2021/05/20 01:58:07;;;;;;;1.35;0.90;;;11.80;68.40;;;;;;4930533;29;20051;-62
2021/05/20 02:00:33;;;;;;;1.60;0.82;;;11.80;68.20;;;;;;4947145;29;20099;-62
2021/05/20 02:02:58;;;;;;;1.35;0.80;;;11.80;68.20;;;;;;4948792;29;20351;-62
2021/05/20 02:05:24;;;;;;;1.38;0.90;;;11.80;68.20;;;;;;4947579;29;20043;-63
2021/05/20 02:07:50;;;;;;;1.52;0.90;;;11.80;68.00;;;;;;4947045;29;20042;-62
2021/05/20 02:10:15;;;;;;;1.10;0.77;;;11.80;67.80;;;;;;4947001;29;20067;-62
2021/05/20 02:12:41;;;;;;;0.95;0.73;;;11.80;68.00;;;;;;4946912;29;20035;-62
2021/05/20 02:15:07;;;;;;;3.13;0.80;;;11.80;68.30;;;;;;4948701;29;20043;-63
2021/05/20 02:17:33;;;;;;;2.63;0.80;;;11.80;68.60;;;;;;4946872;29;20195;-62
2021/05/20 02:19:59;;;;;;;1.17;0.80;;;11.80;68.40;;;;;;4946722;29;20036;-62
2021/05/20 02:22:24;;;;;;;1.15;0.70;;;11.80;68.00;;;;;;4946797;29;20043;-63
2021/05/20 02:24:50;;;;;;;1.63;0.82;;;11.70;68.00;;;;;;4946723;29;20035;-63
2021/05/20 02:27:15;;;;;;;0.80;0.70;;;11.80;68.00;;;;;;4946710;29;20035;-63
2021/05/20 02:29:41;;;;;;;2.08;0.80;;;11.70;67.80;;;;;;4948602;29;20040;-63
2021/05/20 02:32:06;;;;;;;1.60;0.75;;;11.70;67.70;;;;;;4947088;29;20070;-62
2021/05/20 02:34:32;;;;;;;2.10;0.80;;;11.60;67.70;;;;;;4946831;29;20402;-62
2021/05/20 02:36:57;;;;;;;1.52;0.60;;;11.60;67.40;;;;;;4946667;29;20111;-63
2021/05/20 02:39:23;;;;;;;1.30;0.80;;;11.60;67.50;;;;;;4946368;29;20031;-63
2021/05/20 02:41:48;;;;;;;1.05;0.70;;;11.60;67.50;;;;;;4948106;29;20223;-62
2021/05/20 02:44:14;;;;;;;2.08;0.65;;;11.60;67.30;;;;;;4946884;29;20079;-62
2021/05/20 02:46:40;;;;;;;1.63;0.70;;;11.60;67.80;;;;;;4929876;29;20323;-62
2021/05/20 02:49:05;;;;;;;1.30;0.70;;;11.60;67.50;;;;;;4946748;29;20043;-62
2021/05/20 02:51:31;;;;;;;2.10;0.82;;;11.50;67.60;;;;;;4946533;29;20042;-63
2021/05/20 02:53:56;;;;;;;2.42;0.60;;;11.60;67.70;;;;;;4948375;29;20051;-62
2021/05/20 02:56:22;;;;;;;1.40;0.73;;;11.60;67.50;;;;;;4946659;29;20066;-63
2021/05/20 02:58:47;;;;;;;1.33;0.80;;;11.60;67.80;;;;;;4946392;29;20343;-63
2021/05/20 03:01:13;;;;;;;1.48;0.80;;;11.60;67.50;;;;;;4946100;29;20055;-63
2021/05/20 03:03:38;;;;;;;1.65;0.70;;;11.60;67.50;;;;;;4945925;29;20052;-62
2021/05/20 03:06:04;;;;;;;1.20;0.60;;;11.60;67.40;;;;;;4947892;29;20090;-63
2021/05/20 03:08:30;;;;;;;1.20;0.80;;;11.60;67.50;;;;;;4946521;29;20309;-62
2021/05/20 03:10:55;;;;;;;2.25;1.15;;;11.60;67.40;;;;;;4946231;29;20323;-63
2021/05/20 03:13:21;;;;;;;1.63;0.77;;;11.50;67.60;;;;;;4929376;29;20090;-63
2021/05/20 03:15:46;;;;;;;2.70;0.80;;;11.60;67.50;;;;;;4946114;29;20059;-62
2021/05/20 03:18:12;;;;;;;1.13;0.63;;;11.60;67.60;;;;;;4928815;29;20227;-63
2021/05/20 03:20:37;;;;;;;2.00;0.77;;;11.60;67.40;;;;;;4947513;29;20036;-63
2021/05/20 03:23:03;;;;;;;4.10;0.60;;;11.60;67.30;;;;;;4946258;29;20036;-62
2021/05/20 03:25:28;;;;;;;2.03;0.88;;;11.60;67.30;;;;;;4945975;29;20102;-62
2021/05/20 03:27:54;;;;;;;0.70;0.60;;;11.60;67.30;;;;;;4945745;29;20027;-62
2021/05/20 03:30:20;;;;;;;3.00;0.80;;;11.60;67.30;;;;;;4945144;29;20059;-62
2021/05/20 03:32:45;;;;;;;1.55;0.70;;;11.60;67.30;;;;;;4947112;29;20047;-63
2021/05/20 03:35:11;;;;;;;1.15;0.70;;;11.60;67.30;;;;;;4945937;29;20223;-63
2021/05/20 03:37:37;;;;;;;1.55;0.80;;;11.60;67.40;;;;;;4945752;29;20087;-63
2021/05/20 03:40:04;;;;;;;1.63;0.80;;;11.60;67.50;;;;;;4945633;29;20043;-62
2021/05/20 03:42:29;;;;;;;1.70;0.93;;;11.60;67.40;;;;;;4945335;29;20036;-62
2021/05/20 03:44:55;;;;;;;2.15;0.70;;;11.50;67.40;;;;;;4947228;29;20235;-62
2021/05/20 03:47:20;;;;;;;1.92;0.70;;;11.60;67.30;;;;;;4945814;29;20036;-63
2021/05/20 03:49:46;;;;;;;2.08;0.80;;;11.60;67.20;;;;;;4945379;29;20036;-63
2021/05/20 03:52:11;;;;;;;0.80;0.60;;;11.50;67.00;;;;;;4945386;29;20059;-62
2021/05/20 03:54:40;;;;;;;1.17;0.70;;;11.60;67.10;;;;;;4945646;29;20039;-62
2021/05/20 03:57:06;;;;;;;0.85;0.55;;;11.50;67.10;;;;;;4947038;29;20027;-63
2021/05/20 03:59:31;;;;;;;1.00;0.70;;;11.50;67.10;;;;;;4945862;29;20066;-62
2021/05/20 04:01:57;;;;;;;2.05;0.73;;;11.50;67.10;;;;;;4945466;29;20046;-63
2021/05/20 04:04:22;;;;;;;1.27;0.60;;;11.60;67.10;;;;;;4945061;29;20331;-62
2021/05/20 04:06:48;;;;;;;1.83;0.80;;;11.50;67.10;;;;;;4945135;29;20046;-63
2021/05/20 04:09:13;;;;;;;1.83;0.80;;;11.60;67.10;;;;;;4945510;29;20051;-63
2021/05/20 04:11:39;;;;;;;1.95;0.65;;;11.60;67.20;;;;;;4946660;29;20051;-63
2021/05/20 04:14:04;;;;;;;2.03;0.60;;;11.60;67.20;;;;;;4944959;29;20043;-62
2021/05/20 04:16:30;;;;;;;2.35;0.80;;;11.50;67.30;;;;;;4945169;29;20043;-62
2021/05/20 04:18:55;;;;;;;1.00;0.65;;;11.40;67.60;;;;;;4944919;29;20115;-62
2021/05/20 04:21:21;;;;;;;1.80;0.70;;;11.50;67.70;;;;;;4945123;29;20035;-64
2021/05/20 04:23:46;;;;;;;1.13;0.70;;;11.60;67.30;;;;;;4946793;29;20043;-64
2021/05/20 04:26:12;;;;;;;1.65;0.60;;;11.60;67.20;;;;;;4945363;29;20040;-65
2021/05/20 04:28:38;;;;;;;0.70;0.60;;;11.60;67.50;;;;;;4944950;29;20050;-63
2021/05/20 04:31:03;;;;;;;2.53;0.80;;;11.60;67.70;;;;;;4945116;29;20151;-64
2021/05/20 04:33:29;;;;;;;2.53;0.70;;;11.50;67.60;;;;;;4944833;29;20331;-64
2021/05/20 04:35:54;;;;;;;1.77;0.90;;;11.60;67.40;;;;;;4946661;29;20059;-65
2021/05/20 04:38:20;;;;;;;1.10;0.70;;;11.60;67.40;;;;;;4945153;29;20039;-67
2021/05/20 04:40:45;;;;;;;2.38;0.80;;;11.50;67.80;;;;;;4944800;29;20091;-64
2021/05/20 04:43:11;;;;;;;3.03;0.80;;;11.60;67.70;;;;;;4930843;29;20067;-64
2021/05/20 04:45:37;;;;;;;1.95;0.75;;;11.50;67.80;;;;;;4948745;29;20058;-64
2021/05/20 04:48:03;;;;;;;1.95;0.85;;;11.60;67.60;;;;;;4950256;29;20036;-64
2021/05/20 04:50:28;;;;;;;2.50;1.10;;;11.60;67.70;;;;;;4948812;29;20051;-64
2021/05/20 04:52:54;;;;;;;3.22;0.80;;;11.50;68.10;;;;;;4948715;29;20162;-64
2021/05/20 04:55:19;;;;;;;1.92;0.90;;;11.60;67.90;;;;;;4948522;29;20094;-63
2021/05/20 04:57:45;;;;;;;1.00;0.70;;;11.70;67.90;;;;;;4948152;29;20039;-62
2021/05/20 05:00:12;;;;;;;1.98;1.00;;;11.60;67.90;;;;;;4948163;29;20032;-64
2021/05/20 05:02:37;;;;;;;1.70;0.90;;;11.60;68.20;;;;;;4949513;29;20050;-65
2021/05/20 05:05:04;;;;;;;1.23;0.75;;;11.60;68.00;;;;;;4948613;29;20039;-64
2021/05/20 05:07:29;;;;;;;5.85;1.45;;;11.60;67.90;;;;;;4948149;29;20156;-64
2021/05/20 05:09:55;;;;;;;1.88;1.10;;;11.60;68.00;;;;;;4948205;29;20044;-64
2021/05/20 05:12:20;;;;;;;2.88;0.90;;;11.60;68.20;;;;;;4947892;29;20374;-63
2021/05/20 05:14:46;;;;;;;3.13;1.13;;;11.70;68.20;;;;;;4950050;29;20259;-63
2021/05/20 05:17:12;;;;;;;1.67;0.80;;;11.70;68.10;;;;;;4948297;29;20043;-63
2021/05/20 05:19:38;;;;;;;2.03;0.93;;;11.60;67.70;;;;;;4948081;29;20087;-64
2021/05/20 05:22:04;;;;;;;2.45;1.15;;;11.60;67.90;;;;;;4947799;29;20046;-62
2021/05/20 05:24:30;;;;;;;3.42;1.10;;;11.70;67.90;;;;;;4947754;29;20024;-62
2021/05/20 05:26:55;;;;;;;5.65;1.00;;;11.60;67.90;;;;;;4949645;29;20329;-64
2021/05/20 05:29:21;;;;;;;2.03;1.10;;;11.60;67.70;;;;;;4948175;29;20040;-64
2021/05/20 05:31:47;;;;;;;1.85;1.02;;;11.60;67.80;;;;;;4947848;29;20039;-62
2021/05/20 05:34:12;;;;;;;2.47;1.30;;;11.70;68.00;;;;;;4948021;29;20227;-62
2021/05/20 05:36:38;;;;;;;2.05;1.20;;;11.60;67.70;;;;;;4930907;29;20032;-61
2021/05/20 05:39:04;;;;;;;2.22;1.10;;;11.60;68.00;;;;;;4948992;29;20040;-63
2021/05/20 05:41:30;;;;;;;1.45;1.00;;;11.60;68.00;;;;;;4947899;29;20328;-63
2021/05/20 05:43:55;;;;;;;6.30;1.20;;;11.60;68.00;;;;;;4947428;29;20086;-63
2021/05/20 05:46:21;;;;;;;2.20;0.80;;;11.60;67.80;;;;;;4947259;29;20090;-63
2021/05/20 05:48:48;;;;;;;1.70;1.00;;;11.70;67.80;;;;;;4947508;29;20039;-62
2021/05/20 05:51:15;;;;;;;3.05;1.10;;;11.70;67.60;;;;;;4947569;29;20227;-63
2021/05/20 05:53:41;;;;;;;2.38;0.98;;;11.80;67.50;;;;;;4948630;29;20091;-64
2021/05/20 05:56:07;;;;;;;3.95;1.15;;;11.80;67.70;;;;;;4947160;29;20223;-64
2021/05/20 05:58:32;;;;;;;1.75;1.05;;;11.90;67.60;;;;;;4947161;29;20043;-63
2021/05/20 06:00:58;;;;;;;3.85;1.50;;;11.90;67.50;;;;;;4947477;29;20036;-64
2021/05/20 06:03:23;;;;;;;2.85;1.38;;;11.90;67.40;;;;;;4946948;29;20052;-63
2021/05/20 06:05:49;;;;;;;2.03;1.10;;;11.90;67.40;;;;;;4948930;29;20036;-63
2021/05/20 06:08:15;;;;;;;2.42;1.17;;;12.00;67.40;;;;;;4930858;29;20078;-66
2021/05/20 06:10:40;;;;;;;2.10;1.30;;;11.90;67.20;;;;;;4947112;29;20043;-64
2021/05/20 06:13:06;;;;;;;5.07;1.20;;;11.90;67.20;;;;;;4947053;29;20039;-64
2021/05/20 06:15:32;;;;;;;2.63;1.20;;;11.90;67.10;;;;;;4947123;29;20370;-67
2021/05/20 06:17:58;;;;;;;2.88;1.10;;;12.00;67.00;;;;;;4948710;29;20036;-65
2021/05/20 06:20:23;;;;;;;2.83;1.45;;;12.00;66.90;;;;;;4947065;29;20070;-65
2021/05/20 06:22:49;;;;;;;4.85;1.38;;;12.00;66.80;;;;;;4947206;29;20043;-66
2021/05/20 06:25:14;;;;;;;4.47;1.30;;;11.90;66.70;;;;;;4946576;29;20068;-64
2021/05/20 06:27:40;;;;;;;2.47;1.30;;;11.90;66.60;;;;;;4946584;29;20058;-65
2021/05/20 06:30:05;;;;;;;4.32;1.20;;;12.00;66.60;;;;;;4948176;29;20042;-67
2021/05/20 06:32:31;;;;;;;2.80;1.30;;;12.10;66.70;;;;;;4946963;29;20075;-67
2021/05/20 06:34:56;;;;;;;2.80;1.20;;;12.20;66.60;;;;;;4946889;29;20051;-65
2021/05/20 06:37:22;;;;;;;2.10;1.30;;;12.30;66.40;;;;;;4929513;29;20335;-65
2021/05/20 06:39:47;;;;;;;5.70;1.27;;;12.30;66.10;;;;;;4946194;29;20051;-64
2021/05/20 06:42:15;;;;;;;1.95;1.10;;;12.30;66.10;;;;;;4946180;29;20090;-68
2021/05/20 06:44:41;;;;;;;2.28;1.02;;;12.30;65.70;;;;;;4948166;29;20032;-66
2021/05/20 06:47:07;;;;;;;3.13;1.88;;;12.30;66.10;;;;;;4946383;29;20152;-66
2021/05/20 06:49:32;;;;;;;3.15;1.50;;;12.40;66.30;;;;;;4946558;29;20332;-66
2021/05/20 06:51:58;;;;;;;2.78;1.20;;;12.40;65.80;;;;;;4946429;29;20042;-65
2021/05/20 06:54:24;;;;;;;1.95;1.08;;;12.50;65.80;;;;;;4946142;29;20105;-62
2021/05/20 06:56:54;;;;;;;2.90;1.30;;;12.60;65.60;;;;;;4947587;29;20055;-65
2021/05/20 07:02:04;;;;;;;1.85;1.10;;;12.60;65.70;;;;;;4946109;29;20087;-64
2021/05/20 07:04:30;;;;;;;3.95;1.38;;;12.60;65.40;;;;;;4945739;29;20091;-65
2021/05/20 07:07:00;;;;;;;3.70;1.30;;;12.60;65.20;;;;;;4946002;29;20386;-64
2021/05/20 07:09:26;;;;;;;2.70;1.30;;;12.60;65.00;;;;;;4930065;29;20032;-64
2021/05/20 07:11:52;;;;;;;1.30;1.00;;;12.70;64.90;;;;;;4930748;29;20042;-65
2021/05/20 07:14:18;;;;;;;1.38;0.90;;;12.60;64.50;;;;;;4946349;29;20047;-65
2021/05/20 07:16:43;;;;;;;1.77;1.10;;;12.70;64.50;;;;;;4945718;29;20040;-64
2021/05/20 07:19:09;;;;;;;1.70;1.10;;;12.80;64.40;;;;;;4945699;29;20112;-64
2021/05/20 07:21:34;;;;;;;3.15;0.90;;;12.80;64.20;;;;;;4945521;29;20095;-65
2021/05/20 07:24:00;;;;;;;1.95;1.05;;;12.90;63.40;;;;;;4948172;29;20273;-65
2021/05/20 07:26:25;;;;;;;4.50;1.33;;;12.90;63.40;;;;;;4945956;29;20134;-66
2021/05/20 07:28:51;;;;;;;1.70;1.08;;;12.90;63.40;;;;;;4946019;29;20035;-65
2021/05/20 07:31:16;;;;;;;1.75;1.05;;;12.90;63.50;;;;;;4945459;29;20046;-64
2021/05/20 07:33:42;;;;;;;2.42;1.30;;;12.90;63.50;;;;;;4945683;29;20031;-64
2021/05/20 07:36:08;;;;;;;2.88;1.30;;;13.00;63.50;;;;;;4947198;29;20039;-63
2021/05/20 07:38:33;;;;;;;3.53;1.27;;;13.00;63.30;;;;;;4945698;29;20047;-63
2021/05/20 07:40:59;;;;;;;3.13;1.10;;;13.10;63.40;;;;;;4945723;29;20055;-64
2021/05/20 07:43:24;;;;;;;3.70;1.17;;;13.30;63.40;;;;;;4945286;29;20040;-64
2021/05/20 07:45:51;;;;;;;2.78;1.20;;;13.20;63.20;;;;;;4928422;29;20095;-64
2021/05/20 07:48:17;;;;;;;1.10;0.80;;;13.30;62.60;;;;;;4945136;29;20032;-64
2021/05/20 07:50:43;;;;;;;1.60;0.85;;;13.30;62.20;;;;;;4946834;29;20346;-64
2021/05/20 07:53:09;;;;;;;3.20;0.80;;;13.40;61.40;;;;;;4945520;29;20036;-64
2021/05/20 07:55:34;;;;;;;1.92;0.90;;;13.60;61.00;;;;;;4945108;29;20369;-64
2021/05/20 07:58:00;;;;;;;8.80;1.00;;;13.80;61.00;;;;;;4945149;29;20039;-64
2021/05/20 08:00:26;;;;;;;4.65;0.90;;;13.90;61.80;;;;;;4945187;29;20042;-64
2021/05/20 08:02:58;;;;;;;1.17;0.63;;;14.00;61.30;;;;;;4946734;29;20075;-66
2021/05/20 08:05:38;;;;;;;2.72;0.80;;;14.10;60.40;;;;;;4945588;29;20044;-64
2021/05/20 08:08:19;;;;;;;3.33;0.88;;;14.10;60.00;;;;;;4944973;29;20051;-67
2021/05/20 08:10:58;;;;;;;3.03;1.17;;;14.00;60.70;;;;;;4944942;29;20040;-68
2021/05/20 08:13:23;;;;;;;3.90;1.27;;;13.90;62.50;;;;;;4945196;29;20098;-67
2021/05/20 08:15:49;;;;;;;2.20;0.95;;;13.90;63.70;;;;;;4944579;29;20050;-69
2021/05/20 08:18:15;;;;;;;3.05;1.00;;;13.90;64.90;;;;;;4945236;29;20036;-68
2021/05/20 08:20:41;;;;;;;2.30;1.00;;;13.80;65.00;;;;;;4946598;29;20032;-68
2021/05/20 08:23:06;;;;;;;4.65;1.00;;;13.80;64.70;;;;;;4945158;29;20353;-69
2021/05/20 08:25:32;;;;;;;1.50;0.77;;;13.80;64.50;;;;;;4945177;29;20032;-66
2021/05/20 08:27:58;;;;;;;2.50;1.00;;;13.80;65.20;;;;;;4945054;29;20046;-67
2021/05/20 08:30:23;;;;;;;1.67;0.77;;;13.90;65.70;;;;;;4945014;29;20028;-64
2021/05/20 08:32:49;;;;;;;2.75;0.90;;;14.00;66.00;;;;;;4946900;29;20031;-64
2021/05/20 08:35:15;;;;;;;2.67;1.23;;;14.10;66.10;;;;;;4944972;29;20091;-63
2021/05/20 08:37:41;;;;;;;1.25;0.90;;;14.30;66.30;;;;;;4944665;29;20102;-65
2021/05/20 08:40:07;;;;;;;3.17;1.23;;;14.40;66.60;;;;;;4944693;29;20047;-67
2021/05/20 08:42:33;;;;;;;2.40;1.10;;;14.50;66.70;;;;;;4944978;29;20152;-62
2021/05/20 08:45:08;;;;;;;3.15;1.10;;;14.50;66.80;;;;;;4946613;29;20305;-64
2021/05/20 08:47:34;;;;;;;3.83;1.05;;;14.60;66.60;;;;;;4945115;29;20043;-63
2021/05/20 08:50:00;;;;;;;2.03;0.90;;;14.50;66.40;;;;;;4928249;29;20047;-64
2021/05/20 08:52:25;;;;;;;1.85;1.00;;;14.40;64.50;;;;;;4944704;29;20059;-63
2021/05/20 08:54:51;;;;;;;1.42;0.80;;;14.40;64.20;;;;;;4944531;29;20032;-64
2021/05/20 08:57:22;;;;;;;1.60;1.00;;;14.40;63.20;;;;;;4927412;29;20079;-64
2021/05/20 08:59:48;;;;;;;;;;;14.40;64.10;;;;;;4930434;29;20375;-65
2021/05/20 09:02:27;;;;;;;2.70;0.93;;;14.40;64.50;;;;;;4944831;29;19907;-64
2021/05/20 09:05:00;;;;;;;2.03;0.88;;;14.40;64.50;;;;;;4944989;29;20040;-65
2021/05/20 09:07:31;;;;;;;2.25;0.98;;;14.40;64.50;;;;;;4944780;29;20066;-65
2021/05/20 09:10:17;;;;;;;2.03;1.00;;;14.40;64.40;;;;;;4944833;29;20216;-65
2021/05/20 09:12:42;;;;;;;1.58;0.90;;;14.40;64.60;;;;;;4944612;29;20200;-64
2021/05/20 09:15:20;;;;;;;2.17;0.90;;;14.40;64.60;;;;;;4946308;29;20031;-65
2021/05/20 09:17:46;;;;;;;1.90;1.02;;;14.50;64.60;;;;;;4945363;29;20040;-64
2021/05/20 09:20:11;;;;;;;2.15;0.80;;;14.50;65.00;;;;;;4944587;29;20379;-65
2021/05/20 09:22:37;;;;;;;1.40;0.57;;;14.40;62.60;;;;;;4944733;29;20039;-65
2021/05/20 09:25:04;;;;;;;0.77;0.47;;;14.20;60.50;;;;;;4927699;29;20039;-65
2021/05/20 09:27:31;;;;;;;1.20;0.60;;;14.10;60.10;;;;;;4911694;29;20387;-64
2021/05/20 09:30:21;;;;;;;0.40;0.32;;;14.00;60.40;;;;;;4949391;29;20223;-64
2021/05/20 09:32:58;;;;;;;1.15;0.50;;;13.90;60.10;;;;;;4948667;29;20046;-64
2021/05/20 09:35:28;;;;;;;0.70;0.50;;;13.90;60.20;;;;;;4948065;29;20082;-64
2021/05/20 09:38:12;;;;;;;1.05;0.50;;;13.90;60.40;;;;;;4947897;29;20127;-64
2021/05/20 09:40:43;;;;;;;2.55;0.60;;;14.00;60.60;;;;;;4947698;29;20066;-63
2021/05/20 09:43:18;;;;;;;2.03;0.50;;;14.00;61.00;;;;;;4947793;29;20047;-64
2021/05/20 09:45:44;;;;;;;1.55;0.50;;;14.30;61.50;;;;;;4947667;29;20227;-64
2021/05/20 09:48:09;;;;;;;2.67;0.73;;;14.40;61.30;;;;;;4949560;29;20323;-64
2021/05/20 09:50:40;;;;;;;1.55;0.70;;;14.40;60.60;;;;;;4947937;29;20093;-64
2021/05/20 09:53:10;;;;;;;1.67;0.73;;;14.50;60.40;;;;;;4930612;29;20028;-65
2021/05/20 09:55:36;;;;;;;1.48;0.70;;;14.60;60.30;;;;;;4947099;29;20046;-68
2021/05/20 09:58:08;;;;;;;2.15;0.40;;;14.60;60.80;;;;;;4947078;29;20227;-64
2021/05/20 10:00:33;;;;;;;2.30;0.55;;;14.70;60.20;;;;;;4930567;29;20040;-64
2021/05/20 10:03:07;;;;;;;1.33;0.68;;;14.70;59.10;;;;;;4948797;29;20054;-65
2021/05/20 10:05:40;;;;;;;2.38;0.70;;;14.80;59.70;;;;;;4947503;29;20044;-64
2021/05/20 10:08:07;;;;;;;1.60;0.68;;;14.80;59.60;;;;;;4930324;29;20047;-64
2021/05/20 10:10:35;;;;;;;1.30;0.70;;;15.00;61.00;;;;;;4946992;29;20047;-64
2021/05/20 10:13:08;;;;;;;0.82;0.50;;;15.20;60.10;;;;;;4947076;29;20145;-64
2021/05/20 10:15:34;;;;;;;1.05;0.50;;;15.30;59.20;;;;;;4946973;29;20038;-65
2021/05/20 10:18:03;;;;;;;0.70;0.50;;;15.20;58.90;;;;;;4948752;29;20023;-65
2021/05/20 10:20:28;;;;;;;1.40;0.50;;;15.10;55.80;;;;;;4946895;29;20088;-65
2021/05/20 10:22:54;;;;;;;0.70;0.43;;;15.10;57.40;;;;;;4946798;29;20337;-64
2021/05/20 10:25:19;;;;;;;1.02;0.50;;;15.10;58.50;;;;;;4947057;29;20059;-66
2021/05/20 10:27:45;;;;;;;1.85;0.65;;;15.10;57.20;;;;;;4946910;29;20032;-65
2021/05/20 10:30:12;;;;;;;0.52;0.40;;;15.20;57.80;;;;;;4946647;29;20039;-67
2021/05/20 10:32:39;;;;;;;2.70;0.60;;;15.30;57.10;;;;;;4931421;29;20028;-65
2021/05/20 10:35:07;;;;;;;1.00;0.40;;;15.30;56.10;;;;;;4930224;29;20040;-65
2021/05/20 10:37:40;;;;;;;0.55;0.40;;;15.20;54.30;;;;;;4946457;29;20087;-65
2021/05/20 10:40:06;;;;;;;0.60;0.50;;;15.20;55.00;;;;;;4945510;29;20112;-65
2021/05/20 10:42:39;;;;;;;4.32;0.50;;;15.20;55.00;;;;;;4929731;29;20256;-66
2021/05/20 10:45:24;;;;;;;0.82;0.50;;;15.30;54.90;;;;;;4930904;29;20079;-65
2021/05/20 10:48:05;;;;;;;0.82;0.75;;;15.30;55.50;;;;;;4946976;29;20047;-66
2021/05/20 10:50:49;;;;;;;;;;;15.50;55.90;;;;;;4947130;29;20040;-66
2021/05/20 10:53:53;;;;;;;0.30;0.30;;;15.70;56.30;;;;;;4946728;29;19938;-65
2021/05/20 10:56:21;;;;;;;0.52;0.30;;;15.90;55.00;;;;;;4946065;29;20078;-66
2021/05/20 10:58:47;;;;;;;2.03;0.40;;;16.00;55.30;;;;;;4945939;29;20035;-65
2021/05/20 11:01:24;;;;;;;0.50;0.30;;;16.10;55.50;;;;;;4946005;29;20040;-64
2021/05/20 11:03:56;;;;;;;0.60;0.50;;;16.10;53.00;;;;;;4945709;29;20048;-65
2021/05/20 11:06:43;;;;;;;0.73;0.40;;;16.20;53.60;;;;;;4945804;29;20099;-65
2021/05/20 11:09:11;;;;;;;0.60;0.40;;;16.30;54.30;;;;;;4947521;29;20071;-65
2021/05/20 11:11:40;;;;;;;0.93;0.40;;;16.30;51.10;;;;;;4946611;29;20035;-65
2021/05/20 11:14:26;;;;;;;0.52;0.30;;;16.30;49.90;;;;;;4946203;29;20091;-66
2021/05/20 11:16:52;;;;;;;0.98;0.40;;;16.40;52.60;;;;;;4932593;29;20102;-65
2021/05/20 11:19:28;;;;;;;0.55;0.30;;;16.50;52.40;;;;;;4945532;29;20039;-65
2021/05/20 11:24:28;;;;;;;0.50;0.40;;;16.80;52.50;;;;;;4945621;29;20098;-65
2021/05/20 11:26:54;;;;;;;1.23;0.40;;;16.80;52.20;;;;;;4947487;29;20028;-65
2021/05/20 11:29:26;;;;;;;0.47;0.40;;;16.90;52.20;;;;;;4945860;29;20043;-65
2021/05/20 11:31:58;;;;;;;2.78;0.63;;;16.90;51.40;;;;;;4945785;29;20040;-65
2021/05/20 11:37:04;;;;;;;1.03;0.40;;;16.80;53.30;;;;;;4945394;29;19913;-65
2021/05/20 11:39:30;;;;;;;1.17;0.45;;;16.80;53.50;;;;;;4945017;29;20029;-67
2021/05/20 11:41:57;;;;;;;1.65;0.50;;;16.80;54.20;;;;;;4929849;29;20035;-65
2021/05/20 11:44:25;;;;;;;2.60;0.60;;;16.80;54.30;;;;;;4945468;29;20031;-64
2021/05/20 11:46:54;;;;;;;1.85;0.50;;;16.80;53.70;;;;;;4945193;29;20039;-62
2021/05/20 11:49:22;;;;;;;1.50;0.60;;;17.00;54.30;;;;;;4945099;29;20338;-65
2021/05/20 11:51:52;;;;;;;1.13;0.50;;;17.10;53.20;;;;;;4944816;29;20339;-65
2021/05/20 11:54:19;;;;;;;2.63;0.75;;;17.30;53.10;;;;;;4945595;29;20362;-65
2021/05/20 11:56:50;;;;;;;0.30;0.30;;;17.30;53.20;;;;;;4946978;29;20069;-65
2021/05/20 11:59:17;;;;;;;2.88;0.43;;;17.30;52.50;;;;;;4945321;29;20327;-65
2021/05/20 12:01:43;;;;;;;2.50;0.47;;;17.30;52.10;;;;;;4945398;29;20035;-65
2021/05/20 12:04:09;;;;;;;0.90;0.40;;;17.20;51.60;;;;;;4945173;29;20059;-65
2021/05/20 12:06:35;;;;;;;1.50;0.50;;;17.10;52.10;;;;;;4944996;29;20326;-65
2021/05/20 12:09:07;;;;;;;1.33;0.50;;;17.00;52.60;;;;;;4947146;29;20143;-67
2021/05/20 12:11:33;;;;;;;3.55;0.75;;;16.80;50.70;;;;;;4944844;29;20099;-65
2021/05/20 12:13:58;;;;;;;2.95;0.60;;;16.80;51.50;;;;;;4945300;29;20051;-65
2021/05/20 12:16:34;;;;;;;1.65;0.50;;;16.70;50.40;;;;;;4945166;29;20036;-65
2021/05/20 12:18:59;;;;;;;0.68;0.43;;;16.70;50.50;;;;;;4944996;29;20264;-65
2021/05/20 12:21:25;;;;;;;0.70;0.30;;;16.50;50.70;;;;;;4944654;29;20027;-65
2021/05/20 12:23:57;;;;;;;0.52;0.40;;;16.50;50.60;;;;;;4946481;29;20024;-65
2021/05/20 12:26:27;;;;;;;0.73;0.30;;;16.30;50.90;;;;;;4945300;29;20051;-65
2021/05/20 12:28:53;;;;;;;2.55;0.52;;;16.20;50.80;;;;;;4944432;29;20046;-65
2021/05/20 12:31:19;;;;;;;0.77;0.40;;;16.00;51.30;;;;;;4928087;29;20288;-64
2021/05/20 12:33:46;;;;;;;0.32;0.30;;;16.00;51.20;;;;;;4944924;29;20039;-66
2021/05/20 12:36:28;;;;;;;0.75;0.40;;;15.90;51.10;;;;;;4928435;29;20067;-64
2021/05/20 12:38:54;;;;;;;0.47;0.40;;;16.10;51.70;;;;;;4946456;29;20223;-65
2021/05/20 12:41:19;;;;;;;1.30;0.40;;;16.20;52.10;;;;;;4945248;29;20035;-66
2021/05/20 12:43:45;;;;;;;1.50;0.40;;;16.20;51.60;;;;;;4944703;29;20035;-65
2021/05/20 12:46:16;;;;;;;0.40;0.30;;;16.10;50.30;;;;;;4944622;29;20043;-65
2021/05/20 12:48:43;;;;;;;;;;;15.80;49.30;;;;;;4944967;29;20103;-65
2021/05/20 12:51:14;;;;;;;0.50;0.40;;;15.80;50.10;;;;;;4946336;29;20070;-65
2021/05/20 12:53:42;;;;;;;0.95;0.40;;;15.80;50.70;;;;;;4944915;29;20055;-66
2021/05/20 12:56:30;;;;;;;2.63;0.50;;;15.90;51.60;;;;;;4944436;29;20039;-65
2021/05/20 12:59:10;;;;;;;1.15;0.60;;;15.90;50.50;;;;;;4944712;29;20054;-65